Terminal Aerodrome Forecast
Issued by NWS

Home | Current Version | Previous Version | Text Only | Print | Product List | Glossary On
Versions: 1 2 3 4 5 6 7 8 9 10 11 12 13
000
FTUS44 KLIX 181700
TAFMCB
TAF
KMCB 181738Z 1818/1918 01011KT P6SM SCT020 BKN035
     FM190700 35003KT 3SM BR FEW250
     FM191400 36004KT P6SM SKC=

USA.gov is the U.S. government's official web portal to all federal, state and local government web resources and services.